createdAt,value
2023-04-21T00:00:31.722Z,5.79
2023-04-21T00:01:29.991Z,5.72
2023-04-21T00:02:27.476Z,5.53
2023-04-21T00:03:24.654Z,5.61
2023-04-21T00:04:21.496Z,5.77
2023-04-21T00:05:18.510Z,5.82
2023-04-21T00:06:22.386Z,5.69
2023-04-21T00:07:20.280Z,5.68
2023-04-21T00:08:18.138Z,5.48
2023-04-21T00:09:14.677Z,5.70
2023-04-21T00:10:11.961Z,5.65
2023-04-21T00:11:08.776Z,5.59
2023-04-21T00:12:05.494Z,5.54
2023-04-21T00:13:02.026Z,5.58
2023-04-21T00:13:58.606Z,5.53
2023-04-21T00:14:55.345Z,5.61
2023-04-21T00:15:51.971Z,5.58
2023-04-21T00:16:54.412Z,5.47
2023-04-21T00:17:51.079Z,5.39
2023-04-21T00:18:48.067Z,5.41
2023-04-21T00:19:45.001Z,5.32
2023-04-21T00:20:42.801Z,5.40
2023-04-21T00:21:39.595Z,5.47
2023-04-21T00:22:36.472Z,5.35
2023-04-21T00:23:33.145Z,5.31
2023-04-21T00:24:29.760Z,5.60
2023-04-21T00:25:26.714Z,5.52
2023-04-21T00:26:23.302Z,5.35
2023-04-21T00:27:20.024Z,5.23
2023-04-21T00:28:16.726Z,5.48
2023-04-21T00:29:13.357Z,5.52
2023-04-21T00:30:10.574Z,5.55
2023-04-21T00:31:07.213Z,5.48
2023-04-21T00:32:07.032Z,5.32
2023-04-21T00:33:03.671Z,5.82
2023-04-21T00:34:00.292Z,5.84
2023-04-21T00:34:56.919Z,5.91
2023-04-21T00:35:54.547Z,5.93
2023-04-21T00:36:51.094Z,6.09
2023-04-21T00:37:47.651Z,6.24
2023-04-21T00:38:44.248Z,5.95
2023-04-21T00:39:40.975Z,5.71
2023-04-21T00:40:37.579Z,5.62
2023-04-21T00:41:35.412Z,5.29
2023-04-21T00:42:31.991Z,5.84
2023-04-21T00:43:29.122Z,5.69
2023-04-21T00:44:25.718Z,5.64
2023-04-21T00:45:22.430Z,5.77
2023-04-21T00:46:19.021Z,5.72
2023-04-21T00:47:15.688Z,5.64
2023-04-21T00:48:12.513Z,5.62
2023-04-21T00:49:09.466Z,5.55
2023-04-21T00:50:06.417Z,5.21
2023-04-21T00:51:03.083Z,5.46
2023-04-21T00:52:00.592Z,5.61
2023-04-21T00:52:57.666Z,5.37
2023-04-21T00:53:55.859Z,5.64
2023-04-21T00:54:53.448Z,5.60
2023-04-21T00:55:50.880Z,5.56
2023-04-21T00:56:47.592Z,5.59
2023-04-21T00:57:44.899Z,5.55
2023-04-21T00:58:42.618Z,5.88
2023-04-21T00:59:39.229Z,5.91
2023-04-21T01:00:36.560Z,5.50
2023-04-21T01:01:34.424Z,5.32
2023-04-21T01:02:31.285Z,5.21
2023-04-21T01:03:28.437Z,5.22
2023-04-21T01:04:25.752Z,5.24
2023-04-21T01:05:23.086Z,5.17
2023-04-21T01:06:19.931Z,5.33
2023-04-21T01:07:16.648Z,5.12
2023-04-21T01:08:14.317Z,5.47
2023-04-21T01:09:12.755Z,5.10
2023-04-21T01:10:09.693Z,5.38
2023-04-21T01:11:11.159Z,5.39
2023-04-21T01:12:10.624Z,5.33
2023-04-21T01:13:07.176Z,5.37
2023-04-21T01:14:03.754Z,5.35
2023-04-21T01:15:00.866Z,5.19
2023-04-21T01:15:57.485Z,5.35
2023-04-21T01:16:54.273Z,5.55
2023-04-21T01:17:54.093Z,5.52
2023-04-21T01:18:52.217Z,5.57
2023-04-21T01:19:50.524Z,5.57
2023-04-21T01:20:47.161Z,5.35
2023-04-21T01:21:44.269Z,5.28
2023-04-21T01:22:42.711Z,5.18
2023-04-21T01:23:40.571Z,5.14
2023-04-21T01:24:45.246Z,5.28
2023-04-21T01:25:41.804Z,5.26
2023-04-21T01:26:38.426Z,5.41
2023-04-21T01:27:35.326Z,5.25
2023-04-21T01:28:32.314Z,4.98
2023-04-21T01:29:33.136Z,5.13
2023-04-21T01:30:29.777Z,5.12
2023-04-21T01:31:27.441Z,5.16
2023-04-21T01:32:29.171Z,5.23
2023-04-21T01:33:26.072Z,5.19
2023-04-21T01:34:22.647Z,5.53
2023-04-21T01:35:19.480Z,5.47
2023-04-21T01:36:16.059Z,5.28
2023-04-21T01:37:18.023Z,5.32
2023-04-21T01:38:19.627Z,5.38
2023-04-21T01:39:16.518Z,5.13
2023-04-21T01:40:13.871Z,5.25
2023-04-21T01:41:10.916Z,5.14
2023-04-21T01:42:08.754Z,4.86
2023-04-21T01:43:05.986Z,5.13
2023-04-21T01:44:02.654Z,5.07
2023-04-21T01:45:00.006Z,5.09
2023-04-21T01:45:56.821Z,5.01
2023-04-21T01:46:53.492Z,5.03
2023-04-21T01:47:50.105Z,5.04
2023-04-21T01:48:47.007Z,5.27
2023-04-21T01:49:43.574Z,5.23
2023-04-21T01:50:40.236Z,5.15
2023-04-21T01:51:36.839Z,5.03
2023-04-21T01:52:33.410Z,4.91
2023-04-21T01:53:30.008Z,4.74
2023-04-21T01:54:26.646Z,4.57
2023-04-21T01:55:23.329Z,4.78
2023-04-21T01:56:20.332Z,4.73
2023-04-21T01:57:17.599Z,4.64
2023-04-21T01:58:14.258Z,4.70
2023-04-21T01:59:10.914Z,4.86
2023-04-21T02:00:09.299Z,4.89
2023-04-21T02:01:05.949Z,5.03
2023-04-21T02:02:03.122Z,4.80
2023-04-21T02:02:59.966Z,5.43
2023-04-21T02:03:56.759Z,5.74
2023-04-21T02:04:53.494Z,5.56
2023-04-21T02:05:51.257Z,5.36
2023-04-21T02:06:47.884Z,5.29
2023-04-21T02:07:45.003Z,5.18
2023-04-21T02:08:41.683Z,5.15
2023-04-21T02:09:38.403Z,5.03
2023-04-21T02:10:35.221Z,4.90
2023-04-21T02:11:31.858Z,4.86
2023-04-21T02:12:28.499Z,4.94
2023-04-21T02:13:25.111Z,4.92
2023-04-21T02:14:21.664Z,4.78
2023-04-21T02:15:18.349Z,4.78
2023-04-21T02:16:14.973Z,4.69
2023-04-21T02:17:11.825Z,4.36
2023-04-21T02:18:08.628Z,4.53
2023-04-21T02:19:06.364Z,4.15
2023-04-21T02:20:04.354Z,4.36
2023-04-21T02:21:01.019Z,4.30
2023-04-21T02:21:57.698Z,4.46
2023-04-21T02:22:54.264Z,3.78
2023-04-21T02:23:52.047Z,4.69
2023-04-21T02:24:49.815Z,4.48
2023-04-21T02:25:46.382Z,4.68
2023-04-21T02:26:43.046Z,4.81
2023-04-21T02:27:39.717Z,4.79
2023-04-21T02:28:36.312Z,4.91
2023-04-21T02:29:32.924Z,4.82
2023-04-21T02:30:29.520Z,4.75
2023-04-21T02:31:26.264Z,4.43
2023-04-21T02:32:25.909Z,4.75
2023-04-21T02:33:23.067Z,4.65
2023-04-21T02:34:20.718Z,4.59
2023-04-21T02:35:17.362Z,4.69
2023-04-21T02:36:14.009Z,4.72
2023-04-21T02:37:10.773Z,4.73
2023-04-21T02:38:08.968Z,4.67
2023-04-21T02:39:05.640Z,4.58
2023-04-21T02:40:02.201Z,4.71
2023-04-21T02:40:58.961Z,4.65
2023-04-21T02:41:55.666Z,4.71
2023-04-21T02:42:52.299Z,4.70
2023-04-21T02:43:49.397Z,4.59
2023-04-21T02:44:46.119Z,4.66
2023-04-21T02:45:42.773Z,4.76
2023-04-21T02:46:42.254Z,4.63
2023-04-21T02:47:38.888Z,4.74
2023-04-21T02:48:36.606Z,4.71
2023-04-21T02:49:33.340Z,4.71
2023-04-21T02:50:30.140Z,4.75
2023-04-21T02:51:26.935Z,4.69
2023-04-21T02:52:23.616Z,4.69
2023-04-21T02:53:21.137Z,4.64
2023-04-21T02:54:17.723Z,4.72
2023-04-21T02:55:14.432Z,4.59
2023-04-21T02:56:11.096Z,4.76
2023-04-21T02:57:07.813Z,4.56
2023-04-21T02:58:04.422Z,4.73
2023-04-21T02:59:01.039Z,4.68
2023-04-21T02:59:57.685Z,4.66
2023-04-21T03:00:54.335Z,4.55
2023-04-21T03:01:51.126Z,4.54
2023-04-21T03:02:47.848Z,4.57
2023-04-21T03:03:44.679Z,4.84
2023-04-21T03:04:41.475Z,4.68
2023-04-21T03:05:38.227Z,4.53
2023-04-21T03:06:35.060Z,4.58
2023-04-21T03:07:31.653Z,4.50
2023-04-21T03:08:28.679Z,4.14
2023-04-21T03:09:25.484Z,4.64
2023-04-21T03:10:22.316Z,4.53
2023-04-21T03:11:18.948Z,4.39
2023-04-21T03:12:15.753Z,4.45
2023-04-21T03:13:12.360Z,4.30
2023-04-21T03:14:08.948Z,4.15
2023-04-21T03:15:06.398Z,4.33
2023-04-21T03:16:03.445Z,4.62
2023-04-21T03:17:00.180Z,4.58
2023-04-21T03:17:56.964Z,4.27
2023-04-21T03:18:53.679Z,4.16
2023-04-21T03:19:50.282Z,4.39
2023-04-21T03:20:46.877Z,4.20
2023-04-21T03:21:43.543Z,3.83
2023-04-21T03:22:40.352Z,4.23
2023-04-21T03:23:37.285Z,4.32
2023-04-21T03:24:33.943Z,4.39
2023-04-21T03:25:30.671Z,4.45
2023-04-21T03:26:27.344Z,4.33
2023-04-21T03:27:23.959Z,4.48
2023-04-21T03:28:20.668Z,4.51
2023-04-21T03:29:17.443Z,4.37
2023-04-21T03:30:14.343Z,4.39
2023-04-21T03:31:10.941Z,4.31
2023-04-21T03:32:07.646Z,4.32
2023-04-21T03:33:04.847Z,4.09
2023-04-21T03:34:01.659Z,4.32
2023-04-21T03:34:58.343Z,4.35
2023-04-21T03:35:54.989Z,4.41
2023-04-21T03:36:51.574Z,3.51
2023-04-21T03:37:49.826Z,4.29
2023-04-21T03:38:46.462Z,4.28
2023-04-21T03:39:43.106Z,4.13
2023-04-21T03:40:39.736Z,4.30
2023-04-21T03:41:36.496Z,4.36
2023-04-21T03:42:33.146Z,3.92
2023-04-21T03:43:29.767Z,4.25
2023-04-21T03:44:27.274Z,4.27
2023-04-21T03:45:24.244Z,4.22
2023-04-21T03:46:22.383Z,4.10
2023-04-21T03:47:19.081Z,4.12
2023-04-21T03:48:16.081Z,4.12
2023-04-21T03:49:12.653Z,4.12
2023-04-21T03:50:09.419Z,4.13
2023-04-21T03:51:06.043Z,4.17
2023-04-21T03:52:03.146Z,4.21
2023-04-21T03:52:59.801Z,4.16
2023-04-21T03:53:56.361Z,3.82
2023-04-21T03:54:52.934Z,3.96
2023-04-21T03:55:52.786Z,3.77
2023-04-21T03:56:49.376Z,3.77
2023-04-21T03:57:46.066Z,3.62
2023-04-21T03:58:42.798Z,3.87
2023-04-21T03:59:39.358Z,3.81
2023-04-21T04:00:35.982Z,3.90
2023-04-21T04:01:34.721Z,3.89
2023-04-21T04:02:31.457Z,3.83
2023-04-21T04:03:28.229Z,3.90
2023-04-21T04:04:25.279Z,3.95
2023-04-21T04:05:22.075Z,4.01
2023-04-21T04:06:18.696Z,4.01
2023-04-21T04:07:17.618Z,4.04
2023-04-21T04:08:14.317Z,3.96
2023-04-21T04:09:11.084Z,4.07
2023-04-21T04:10:07.879Z,4.08
2023-04-21T04:11:04.594Z,4.12
2023-04-21T04:12:03.436Z,3.84
2023-04-21T04:13:00.208Z,4.03
2023-04-21T04:13:56.819Z,4.10
2023-04-21T04:14:53.497Z,4.27
2023-04-21T04:15:50.350Z,4.27
2023-04-21T04:16:46.995Z,4.25
2023-04-21T04:17:43.556Z,3.94
2023-04-21T04:18:40.603Z,4.23
2023-04-21T04:19:37.187Z,4.23
2023-04-21T04:20:33.764Z,4.33
2023-04-21T04:21:32.557Z,4.44
2023-04-21T04:22:29.146Z,4.56
2023-04-21T04:23:26.186Z,4.62
2023-04-21T04:24:22.798Z,4.59
2023-04-21T04:25:19.534Z,4.57
2023-04-21T04:26:16.219Z,4.65
2023-04-21T04:27:15.400Z,4.66
2023-04-21T04:28:12.771Z,4.36
2023-04-21T04:29:10.730Z,4.75
2023-04-21T04:30:08.076Z,4.84
2023-04-21T04:31:04.822Z,4.93
2023-04-21T04:32:04.264Z,4.95
2023-04-21T04:33:01.699Z,4.98
2023-04-21T04:33:58.373Z,5.03
2023-04-21T04:34:58.962Z,5.07
2023-04-21T04:35:55.504Z,5.19
2023-04-21T04:36:52.261Z,5.25
2023-04-21T04:37:49.801Z,5.40
2023-04-21T04:38:46.921Z,5.54
2023-04-21T04:39:43.575Z,5.55
2023-04-21T04:40:40.598Z,5.55
2023-04-21T04:41:37.955Z,5.34
2023-04-21T04:42:34.809Z,5.54
2023-04-21T04:43:33.598Z,5.56
2023-04-21T04:44:30.499Z,5.60
2023-04-21T04:45:28.645Z,5.63
2023-04-21T04:46:25.821Z,5.72
2023-04-21T04:47:22.454Z,5.82
2023-04-21T04:48:19.541Z,5.96
2023-04-21T04:49:16.626Z,6.05
2023-04-21T04:50:13.246Z,6.12
2023-04-21T04:51:09.838Z,6.14
2023-04-21T04:52:07.100Z,6.19
2023-04-21T04:53:03.694Z,6.20
2023-04-21T04:54:00.307Z,6.20
2023-04-21T04:54:56.981Z,6.18
2023-04-21T04:55:53.802Z,6.17
2023-04-21T04:56:50.508Z,6.32
2023-04-21T04:57:47.122Z,6.56
2023-04-21T04:58:46.483Z,6.33
2023-04-21T04:59:43.142Z,6.51
2023-04-21T05:00:42.047Z,6.57
2023-04-21T05:01:40.202Z,6.61
2023-04-21T05:02:38.448Z,6.92
2023-04-21T05:03:35.398Z,6.99
2023-04-21T05:04:33.737Z,6.97
2023-04-21T05:05:30.689Z,6.71
2023-04-21T05:06:28.556Z,6.84
2023-04-21T05:07:25.824Z,6.82
2023-04-21T05:08:22.393Z,6.85
2023-04-21T05:09:19.001Z,7.06
2023-04-21T05:10:15.731Z,7.09
2023-04-21T05:11:12.323Z,7.03
2023-04-21T05:12:08.988Z,6.97
2023-04-21T05:13:05.792Z,7.03
2023-04-21T05:14:02.454Z,7.01
2023-04-21T05:14:59.155Z,7.19
2023-04-21T05:15:59.142Z,7.35
2023-04-21T05:16:56.044Z,7.44
2023-04-21T05:17:52.823Z,7.47
2023-04-21T05:18:53.874Z,7.49
2023-04-21T05:19:50.854Z,7.77
2023-04-21T05:20:47.382Z,7.74
2023-04-21T05:21:43.970Z,7.76
2023-04-21T05:22:41.175Z,7.81
2023-04-21T05:23:37.792Z,7.94
2023-04-21T05:24:34.879Z,7.66
2023-04-21T05:25:31.524Z,7.82
2023-04-21T05:26:29.144Z,7.95
2023-04-21T05:27:25.707Z,7.91
2023-04-21T05:28:23.246Z,7.99
2023-04-21T05:29:20.001Z,8.01
2023-04-21T05:30:16.768Z,8.24
2023-04-21T05:31:13.510Z,8.29
2023-04-21T05:32:12.318Z,8.13
2023-04-21T05:33:09.559Z,8.10
2023-04-21T05:34:06.351Z,8.24
2023-04-21T05:35:03.114Z,8.21
2023-04-21T05:35:59.758Z,8.46
2023-04-21T05:36:56.567Z,8.61
2023-04-21T05:37:53.144Z,8.71
2023-04-21T05:38:49.737Z,8.70
2023-04-21T05:39:46.533Z,8.80
2023-04-21T05:40:43.267Z,9.08
2023-04-21T05:41:42.424Z,8.96
2023-04-21T05:42:39.451Z,9.11
2023-04-21T05:43:36.062Z,8.73
2023-04-21T05:44:32.620Z,8.29
2023-04-21T05:45:29.251Z,8.59
2023-04-21T05:46:26.016Z,8.72
2023-04-21T05:47:22.779Z,8.66
2023-04-21T05:48:19.649Z,8.71
2023-04-21T05:49:16.334Z,8.96
2023-04-21T05:50:13.124Z,8.80
2023-04-21T05:51:11.166Z,8.70
2023-04-21T05:52:10.502Z,9.06
2023-04-21T05:53:07.144Z,9.07
2023-04-21T05:54:03.866Z,9.00
2023-04-21T05:55:01.259Z,9.19
2023-04-21T05:55:57.849Z,8.86
2023-04-21T05:56:54.427Z,8.60
2023-04-21T05:57:51.123Z,8.67
2023-04-21T05:58:47.771Z,8.80
2023-04-21T05:59:44.471Z,9.06
2023-04-21T06:00:42.520Z,9.20
2023-04-21T06:01:39.124Z,9.10
2023-04-21T06:02:35.944Z,9.18
2023-04-21T06:03:33.527Z,9.51
2023-04-21T06:04:30.695Z,9.64
2023-04-21T06:05:27.654Z,9.57
2023-04-21T06:06:27.760Z,9.41
2023-04-21T06:07:24.398Z,9.63
2023-04-21T06:08:21.401Z,9.32
2023-04-21T06:09:18.103Z,9.42
2023-04-21T06:10:14.908Z,9.40
2023-04-21T06:11:11.598Z,9.47
2023-04-21T06:12:08.279Z,9.74
2023-04-21T06:13:04.898Z,9.76
2023-04-21T06:14:01.889Z,9.66
2023-04-21T06:14:59.308Z,10.02
2023-04-21T06:15:55.952Z,9.86
2023-04-21T06:16:52.555Z,9.57
2023-04-21T06:17:54.128Z,9.65
2023-04-21T06:18:50.750Z,9.42
2023-04-21T06:19:52.927Z,9.77
2023-04-21T06:20:56.718Z,9.78
2023-04-21T06:21:53.304Z,10.47
2023-04-21T06:22:50.543Z,10.30
2023-04-21T06:23:47.146Z,10.03
2023-04-21T06:24:43.752Z,10.38
2023-04-21T06:25:40.383Z,10.15
2023-04-21T06:26:36.953Z,9.90
2023-04-21T06:27:33.762Z,9.84
2023-04-21T06:28:33.682Z,10.05
2023-04-21T06:29:30.309Z,10.08
2023-04-21T06:30:26.898Z,9.78
2023-04-21T06:31:23.702Z,10.28
2023-04-21T06:32:20.495Z,10.74
2023-04-21T06:33:17.097Z,10.68
2023-04-21T06:34:13.718Z,10.50
2023-04-21T06:35:10.580Z,10.47
2023-04-21T06:36:07.647Z,10.16
2023-04-21T06:37:04.497Z,10.13
2023-04-21T06:38:01.088Z,10.49
2023-04-21T06:38:57.775Z,10.27
2023-04-21T06:39:54.456Z,9.82
2023-04-21T06:40:51.358Z,10.39
2023-04-21T06:41:47.947Z,10.63
2023-04-21T06:42:44.574Z,10.40
2023-04-21T06:43:41.481Z,10.23
2023-04-21T06:44:39.085Z,10.49
2023-04-21T06:45:35.659Z,10.61
2023-04-21T06:46:32.358Z,10.36
2023-04-21T06:47:29.027Z,10.57
2023-04-21T06:48:26.452Z,11.20
2023-04-21T06:49:23.210Z,11.44
2023-04-21T06:50:19.786Z,11.26
2023-04-21T06:51:16.380Z,10.98
2023-04-21T06:52:13.150Z,10.92
2023-04-21T06:53:11.677Z,11.00
2023-04-21T06:54:08.326Z,11.00
2023-04-21T06:55:05.821Z,11.34
2023-04-21T06:56:03.289Z,11.05
2023-04-21T06:56:59.978Z,11.12
2023-04-21T06:57:56.595Z,11.28
2023-04-21T06:58:53.410Z,10.86
2023-04-21T06:59:49.988Z,11.00
2023-04-21T07:00:46.552Z,11.50
2023-04-21T07:01:43.165Z,11.84
2023-04-21T07:02:39.870Z,11.96
2023-04-21T07:03:36.776Z,11.89
2023-04-21T07:04:33.545Z,11.21
2023-04-21T07:05:30.353Z,11.51
2023-04-21T07:06:27.252Z,11.62
2023-04-21T07:07:23.879Z,11.94
2023-04-21T07:08:20.465Z,11.67
2023-04-21T07:09:17.256Z,11.45
2023-04-21T07:10:19.155Z,11.60
2023-04-21T07:11:15.804Z,11.38
2023-04-21T07:12:12.409Z,11.48
2023-04-21T07:13:10.104Z,11.40
2023-04-21T07:14:06.919Z,11.35
2023-04-21T07:15:03.986Z,11.59
2023-04-21T07:16:00.722Z,11.59
2023-04-21T07:16:57.493Z,11.93
2023-04-21T07:17:54.240Z,11.92
2023-04-21T07:18:50.851Z,12.02
2023-04-21T07:19:47.558Z,12.14
2023-04-21T07:20:44.343Z,11.58
2023-04-21T07:21:40.963Z,11.20
2023-04-21T07:22:37.666Z,11.22
2023-04-21T07:23:34.224Z,11.62
2023-04-21T07:24:31.181Z,11.73
2023-04-21T07:25:27.797Z,11.81
2023-04-21T07:26:24.736Z,11.88
2023-04-21T07:27:21.376Z,12.21
2023-04-21T07:28:18.041Z,12.43
2023-04-21T07:29:14.602Z,12.01
2023-04-21T07:30:11.686Z,12.42
2023-04-21T07:31:08.320Z,12.69
2023-04-21T07:32:04.911Z,12.83
2023-04-21T07:33:01.561Z,13.49
2023-04-21T07:33:58.227Z,12.85
2023-04-21T07:34:54.882Z,12.67
2023-04-21T07:35:51.496Z,12.16
2023-04-21T07:36:48.191Z,12.41
2023-04-21T07:37:44.820Z,12.61
2023-04-21T07:38:43.520Z,12.75
2023-04-21T07:39:40.114Z,12.56
2023-04-21T07:40:36.753Z,11.65
2023-04-21T07:41:33.664Z,12.07
2023-04-21T07:42:30.524Z,11.89
2023-04-21T07:43:27.313Z,11.64
2023-04-21T07:44:24.098Z,12.03
2023-04-21T07:45:21.009Z,11.93
2023-04-21T07:46:17.763Z,11.88
2023-04-21T07:47:14.704Z,11.76
2023-04-21T07:48:11.339Z,11.98
2023-04-21T07:49:08.256Z,11.69
2023-04-21T07:50:05.299Z,11.98
2023-04-21T07:51:03.395Z,12.58
2023-04-21T07:52:00.003Z,13.09
2023-04-21T07:52:56.739Z,13.31
2023-04-21T07:53:53.988Z,13.56
2023-04-21T07:54:51.210Z,13.95
2023-04-21T07:55:47.748Z,12.86
2023-04-21T07:56:44.320Z,12.81
2023-04-21T07:57:41.030Z,12.98
2023-04-21T07:58:37.647Z,13.32
2023-04-21T07:59:34.299Z,13.73
2023-04-21T08:00:31.125Z,13.66
2023-04-21T08:01:27.882Z,12.99
2023-04-21T08:02:24.513Z,13.31
2023-04-21T08:03:23.822Z,14.00
2023-04-21T08:04:21.204Z,14.43
2023-04-21T08:05:18.498Z,14.39
2023-04-21T08:06:15.544Z,14.17
2023-04-21T08:07:13.821Z,14.75
2023-04-21T08:08:10.622Z,14.73
2023-04-21T08:09:07.441Z,14.40
2023-04-21T08:10:04.315Z,14.15
2023-04-21T08:11:01.492Z,14.03
2023-04-21T08:11:58.191Z,14.13
2023-04-21T08:12:54.806Z,13.67
2023-04-21T08:13:51.624Z,13.79
2023-04-21T08:14:49.637Z,13.72
2023-04-21T08:15:46.346Z,13.65
2023-04-21T08:16:43.232Z,13.68
2023-04-21T08:17:40.058Z,13.78
2023-04-21T08:18:36.753Z,13.36
2023-04-21T08:19:33.449Z,13.17
2023-04-21T08:20:30.339Z,12.96
2023-04-21T08:21:27.963Z,13.41
2023-04-21T08:22:25.638Z,13.17
2023-04-21T08:23:22.340Z,13.32
2023-04-21T08:24:19.279Z,13.15
2023-04-21T08:25:16.159Z,13.24
2023-04-21T08:26:13.311Z,12.99
2023-04-21T08:27:10.132Z,13.11
2023-04-21T08:28:06.961Z,12.93
2023-04-21T08:29:05.542Z,12.84
2023-04-21T08:30:02.183Z,13.22
2023-04-21T08:31:00.493Z,13.00
2023-04-21T08:31:57.192Z,13.11
2023-04-21T08:32:54.016Z,13.09
2023-04-21T08:34:01.305Z,13.16
2023-04-21T08:34:58.857Z,13.01
2023-04-21T08:36:58.195Z,12.97
2023-04-21T08:37:54.809Z,12.75
2023-04-21T08:38:51.457Z,12.88
2023-04-21T08:39:50.894Z,12.98
2023-04-21T08:40:48.042Z,12.85
2023-04-21T08:41:44.805Z,12.46
2023-04-21T08:42:41.953Z,13.10
2023-04-21T08:43:40.675Z,12.71
2023-04-21T08:44:37.470Z,12.49
2023-04-21T08:45:35.101Z,12.35
2023-04-21T08:46:33.551Z,12.47
2023-04-21T08:47:32.225Z,12.40
2023-04-21T08:48:29.889Z,12.87
2023-04-21T08:49:30.942Z,12.39
2023-04-21T08:50:29.715Z,12.77
2023-04-21T08:51:28.787Z,12.89
2023-04-21T08:52:25.646Z,13.15
2023-04-21T08:53:22.423Z,13.06
2023-04-21T08:54:19.022Z,13.02
2023-04-21T08:55:16.115Z,13.02
2023-04-21T08:56:12.664Z,12.95
2023-04-21T08:57:15.449Z,12.88
2023-04-21T08:58:13.467Z,13.18
2023-04-21T08:59:10.179Z,13.09
2023-04-21T09:00:08.174Z,13.38
2023-04-21T09:01:05.448Z,13.15
2023-04-21T09:02:16.786Z,13.47
2023-04-21T09:03:24.926Z,13.31
2023-04-21T09:04:22.571Z,13.36
2023-04-21T09:05:31.015Z,13.19
2023-04-21T09:06:41.459Z,13.20
2023-04-21T09:07:41.527Z,13.28
2023-04-21T09:08:42.187Z,13.69
2023-04-21T09:09:52.526Z,13.63
2023-04-21T09:10:50.801Z,13.85
2023-04-21T09:11:58.916Z,13.76
2023-04-21T09:12:56.074Z,14.01
2023-04-21T09:13:57.089Z,14.13
2023-04-21T09:14:54.197Z,14.15
2023-04-21T09:15:54.112Z,13.97
2023-04-21T09:17:01.218Z,13.97
2023-04-21T09:17:57.961Z,14.44
2023-04-21T09:18:54.735Z,14.21
2023-04-21T09:19:51.496Z,14.68
2023-04-21T09:20:50.843Z,14.27
2023-04-21T09:21:47.467Z,14.26
2023-04-21T09:22:44.937Z,14.23
2023-04-21T09:23:45.503Z,14.35
2023-04-21T09:24:49.519Z,14.64
2023-04-21T09:25:46.201Z,14.40
2023-04-21T09:26:42.914Z,14.19
2023-04-21T09:27:41.642Z,14.28
2023-04-21T09:28:44.781Z,14.60
2023-04-21T09:29:48.180Z,15.66
2023-04-21T09:30:45.201Z,15.79
2023-04-21T09:31:44.449Z,15.48
2023-04-21T09:32:41.763Z,15.15
2023-04-21T09:33:49.596Z,14.96
2023-04-21T09:35:01.017Z,15.03
2023-04-21T09:36:01.570Z,14.96
2023-04-21T09:37:05.117Z,14.65
2023-04-21T09:38:12.408Z,14.32
2023-04-21T09:40:12.834Z,14.15
2023-04-21T09:41:09.435Z,14.07
2023-04-21T09:42:06.609Z,14.29
2023-04-21T09:43:03.342Z,14.52
2023-04-21T09:44:04.723Z,14.18
2023-04-21T09:45:28.436Z,13.93
2023-04-21T09:46:19.694Z,13.75
2023-04-21T09:47:17.040Z,13.57
2023-04-21T09:48:17.573Z,13.38
2023-04-21T09:49:17.560Z,12.99
2023-04-21T09:50:16.338Z,12.88
2023-04-21T09:51:28.733Z,12.67
2023-04-21T09:52:33.759Z,12.40
2023-04-21T09:53:35.145Z,12.41
2023-04-21T09:54:33.124Z,12.42
2023-04-21T09:55:31.247Z,12.59
2023-04-21T09:56:30.256Z,13.07
2023-04-21T09:57:28.916Z,13.11
2023-04-21T09:58:31.408Z,13.46
2023-04-21T09:59:35.589Z,13.65
2023-04-21T10:00:33.583Z,13.96
2023-04-21T10:01:30.930Z,14.24
2023-04-21T10:02:31.398Z,13.98
2023-04-21T10:03:29.865Z,14.07
2023-04-21T10:04:29.411Z,13.07
2023-04-21T10:05:26.630Z,13.37
2023-04-21T10:06:23.570Z,13.34
2023-04-21T10:07:20.201Z,13.24
2023-04-21T10:08:17.450Z,13.27
2023-04-21T10:09:18.419Z,13.13
2023-04-21T10:10:28.345Z,13.12
2023-04-21T10:11:25.035Z,12.99
2023-04-21T10:12:22.772Z,13.33
2023-04-21T10:13:19.544Z,13.80
2023-04-21T10:14:16.232Z,13.25
2023-04-21T10:15:32.574Z,13.40
2023-04-21T10:16:29.324Z,13.40
2023-04-21T10:17:26.892Z,13.34
2023-04-21T10:18:25.270Z,13.14
2023-04-21T10:19:27.039Z,13.09
2023-04-21T10:20:23.611Z,12.61
2023-04-21T10:21:22.195Z,12.08
2023-04-21T10:22:30.045Z,11.65
2023-04-21T10:23:33.047Z,11.33
2023-04-21T10:24:30.874Z,11.28
2023-04-21T10:25:29.759Z,10.78
2023-04-21T10:26:32.637Z,11.22
2023-04-21T10:27:34.737Z,11.19
2023-04-21T10:29:00.215Z,10.98
2023-04-21T10:29:58.655Z,10.85
2023-04-21T10:31:33.712Z,10.96
2023-04-21T10:32:43.414Z,11.08
2023-04-21T10:33:40.049Z,11.18
2023-04-21T10:34:41.256Z,10.90
2023-04-21T10:36:00.243Z,10.88
2023-04-21T10:36:57.297Z,10.93
2023-04-21T10:37:54.070Z,10.88
2023-04-21T10:38:57.231Z,11.04
2023-04-21T10:39:55.532Z,11.12
2023-04-21T10:40:52.117Z,11.16
2023-04-21T10:41:48.729Z,11.26
2023-04-21T10:42:45.384Z,11.38
2023-04-21T10:43:49.255Z,11.35
2023-04-21T10:44:56.513Z,11.49
2023-04-21T10:45:55.864Z,11.54
2023-04-21T10:46:54.021Z,11.68
2023-04-21T10:47:53.049Z,11.74
2023-04-21T10:48:52.965Z,11.58
2023-04-21T10:49:50.098Z,11.81
2023-04-21T10:50:48.866Z,11.98
2023-04-21T10:52:03.440Z,11.97
2023-04-21T10:53:10.300Z,11.96
2023-04-21T10:54:06.939Z,12.22
2023-04-21T10:55:04.032Z,12.18
2023-04-21T10:56:01.087Z,12.22
2023-04-21T10:56:59.327Z,12.37
2023-04-21T10:57:56.389Z,12.51
2023-04-21T10:58:53.450Z,12.84
2023-04-21T10:59:50.106Z,12.77
2023-04-21T11:00:46.994Z,12.68
2023-04-21T11:01:43.639Z,12.77
2023-04-21T11:02:41.863Z,12.99
2023-04-21T11:03:41.210Z,12.85
2023-04-21T11:04:45.274Z,12.91
2023-04-21T11:05:42.603Z,13.04
2023-04-21T11:06:39.274Z,13.06
2023-04-21T11:07:36.020Z,12.84
2023-04-21T11:08:32.596Z,12.86
2023-04-21T11:09:29.271Z,13.21
2023-04-21T11:10:25.881Z,13.29
2023-04-21T11:11:27.122Z,13.21
2023-04-21T11:12:47.106Z,12.96
2023-04-21T11:13:43.699Z,12.96
2023-04-21T11:14:41.908Z,13.41
2023-04-21T11:15:40.918Z,13.12
2023-04-21T11:16:38.102Z,13.28
2023-04-21T11:17:36.261Z,13.99
2023-04-21T11:18:43.981Z,13.72
2023-04-21T11:19:40.753Z,13.58
2023-04-21T11:20:41.647Z,13.87
2023-04-21T11:21:38.565Z,14.10
2023-04-21T11:22:37.259Z,13.54
2023-04-21T11:23:33.911Z,13.81
2023-04-21T11:24:31.712Z,14.34
2023-04-21T11:25:28.364Z,14.34
2023-04-21T11:26:40.860Z,14.30
2023-04-21T11:27:37.538Z,14.40
2023-04-21T11:28:34.175Z,14.27
2023-04-21T11:29:30.910Z,14.38
2023-04-21T11:30:35.108Z,14.59
2023-04-21T11:31:32.670Z,14.45
2023-04-21T11:32:29.565Z,14.42
2023-04-21T11:33:29.307Z,14.23
2023-04-21T11:34:26.946Z,14.08
2023-04-21T11:35:23.753Z,14.33
2023-04-21T11:36:22.079Z,14.73
2023-04-21T11:37:29.897Z,14.26
2023-04-21T11:38:26.606Z,14.12
2023-04-21T11:39:23.703Z,13.80
2023-04-21T11:40:20.518Z,13.87
2023-04-21T11:41:25.599Z,13.81
2023-04-21T11:42:22.906Z,13.73
2023-04-21T11:43:21.286Z,13.79
2023-04-21T11:44:41.339Z,13.65
2023-04-21T11:45:38.228Z,13.56
2023-04-21T11:46:37.373Z,13.68
2023-04-21T11:47:34.089Z,13.90
2023-04-21T11:48:30.734Z,13.76
2023-04-21T11:49:30.726Z,14.34
2023-04-21T11:50:33.970Z,14.56
2023-04-21T11:51:39.718Z,13.76
2023-04-21T11:52:37.686Z,13.32
2023-04-21T11:53:34.379Z,13.41
2023-04-21T11:54:31.102Z,13.55
2023-04-21T11:55:28.896Z,13.68
2023-04-21T11:56:25.572Z,13.84
2023-04-21T11:57:23.145Z,13.55
2023-04-21T11:58:21.394Z,13.51
2023-04-21T11:59:26.394Z,13.14
2023-04-21T12:00:23.042Z,13.18
2023-04-21T12:01:21.597Z,13.07
2023-04-21T12:02:29.419Z,12.68
2023-04-21T12:03:26.576Z,13.07
2023-04-21T12:04:26.014Z,13.02
2023-04-21T12:05:23.885Z,13.34
2023-04-21T12:06:22.052Z,13.86
2023-04-21T12:07:23.006Z,13.65
2023-04-21T12:08:19.682Z,13.74
2023-04-21T12:09:21.040Z,13.54
2023-04-21T12:10:21.505Z,13.97
2023-04-21T12:11:18.303Z,13.46
2023-04-21T12:12:15.446Z,13.17
2023-04-21T12:13:12.409Z,13.92
2023-04-21T12:14:09.174Z,13.81
2023-04-21T12:15:07.446Z,13.89
2023-04-21T12:16:04.418Z,13.66
2023-04-21T12:17:01.088Z,13.54
2023-04-21T12:17:57.798Z,13.94
2023-04-21T12:18:56.027Z,14.01
2023-04-21T12:19:52.772Z,14.05
2023-04-21T12:20:53.061Z,14.07
2023-04-21T12:21:58.809Z,14.41
2023-04-21T12:22:56.529Z,14.10
2023-04-21T12:23:53.100Z,14.26
2023-04-21T12:24:49.696Z,14.33
2023-04-21T12:25:47.093Z,14.43
2023-04-21T12:26:44.274Z,14.44
2023-04-21T12:27:59.305Z,14.42
2023-04-21T12:28:56.203Z,14.39
2023-04-21T12:29:52.806Z,14.81
2023-04-21T12:30:49.445Z,14.62
2023-04-21T12:31:46.152Z,14.96
2023-04-21T12:32:42.953Z,15.22
2023-04-21T12:33:40.124Z,14.57
2023-04-21T12:34:36.970Z,14.70
2023-04-21T12:35:34.099Z,14.62
2023-04-21T12:36:30.952Z,14.50
2023-04-21T12:37:27.639Z,14.31
2023-04-21T12:38:24.288Z,14.34
2023-04-21T12:39:21.998Z,14.53
2023-04-21T12:40:18.786Z,14.16
2023-04-21T12:41:15.537Z,14.52
2023-04-21T12:42:12.130Z,14.49